YXJ weather

Fort St John Airport
Fort St.John, British Columbia, Canada

Public forecast

Using degrees Celsius for public forecast. Weather courtesy of forecast.io.

Current aviation weather report (METAR) for Fort St John Airport

Retrieved 2019/11/16 21:00 UTC (11 minutes ago):

CYXJ 162100Z 18010KT 60SM BKN120 OVC240 04/M01 A2972 RMK AC6CI2 SLP091

Aviation forecast (TAF) for Fort St John Airport

Retrieved 2019/11/16 19:39 UTC (2 hours ago):

TAF CYXJ 161838Z 1619/1707 22012KT P6SM BKN150 OVC240 FM162100 18010G20KT P6SM BKN100 FM170000 18010G20KT P6SM BKN040 OVC100 TEMPO 1700/1707 P6SM -RA SCT012 BKN030 RMK NXT FCST BY 170100Z